sensor_id;sensor_type;location;lat;lon;timestamp;P1;durP1;ratioP1;P2;durP2;ratioP2
50355;SDS011;36264;51.296;-0.602;2022-11-20T00:01:12;9.23;;;5.03;;
50355;SDS011;36264;51.296;-0.602;2022-11-20T00:03:39;10.98;;;5.90;;
50355;SDS011;36264;51.296;-0.602;2022-11-20T00:06:05;7.72;;;4.90;;
50355;SDS011;36264;51.296;-0.602;2022-11-20T00:08:35;12.10;;;6.10;;
50355;SDS011;36264;51.296;-0.602;2022-11-20T00:11:05;8.50;;;5.00;;
50355;SDS011;36264;51.296;-0.602;2022-11-20T00:13:34;9.75;;;5.20;;
50355;SDS011;36264;51.296;-0.602;2022-11-20T00:16:00;10.43;;;5.63;;
50355;SDS011;36264;51.296;-0.602;2022-11-20T00:18:28;10.65;;;5.75;;
50355;SDS011;36264;51.296;-0.602;2022-11-20T00:20:59;9.60;;;5.85;;
50355;SDS011;36264;51.296;-0.602;2022-11-20T00:23:26;7.70;;;4.50;;
50355;SDS011;36264;51.296;-0.602;2022-11-20T00:25:51;10.63;;;4.60;;
50355;SDS011;36264;51.296;-0.602;2022-11-20T00:28:16;7.78;;;4.72;;
50355;SDS011;36264;51.296;-0.602;2022-11-20T00:30:42;9.73;;;5.50;;
50355;SDS011;36264;51.296;-0.602;2022-11-20T00:33:07;10.15;;;4.63;;
50355;SDS011;36264;51.296;-0.602;2022-11-20T00:35:32;9.13;;;5.13;;
50355;SDS011;36264;51.296;-0.602;2022-11-20T00:37:57;8.63;;;5.25;;
50355;SDS011;36264;51.296;-0.602;2022-11-20T00:40:23;8.48;;;4.78;;
50355;SDS011;36264;51.296;-0.602;2022-11-20T00:42:48;12.23;;;5.05;;
50355;SDS011;36264;51.296;-0.602;2022-11-20T00:45:13;8.38;;;5.07;;
50355;SDS011;36264;51.296;-0.602;2022-11-20T00:47:39;7.82;;;4.50;;
50355;SDS011;36264;51.296;-0.602;2022-11-20T00:50:04;9.52;;;5.07;;
50355;SDS011;36264;51.296;-0.602;2022-11-20T00:52:30;7.75;;;4.63;;
50355;SDS011;36264;51.296;-0.602;2022-11-20T00:54:55;7.32;;;4.05;;
50355;SDS011;36264;51.296;-0.602;2022-11-20T00:57:20;6.05;;;3.95;;
50355;SDS011;36264;51.296;-0.602;2022-11-20T00:59:46;8.20;;;4.45;;
50355;SDS011;36264;51.296;-0.602;2022-11-20T01:02:11;7.15;;;3.92;;
50355;SDS011;36264;51.296;-0.602;2022-11-20T01:04:36;8.35;;;4.63;;
50355;SDS011;36264;51.296;-0.602;2022-11-20T01:07:01;8.90;;;4.68;;
50355;SDS011;36264;51.296;-0.602;2022-11-20T01:09:27;7.68;;;4.60;;
50355;SDS011;36264;51.296;-0.602;2022-11-20T01:11:52;7.57;;;3.95;;
50355;SDS011;36264;51.296;-0.602;2022-11-20T01:14:18;7.70;;;4.40;;
50355;SDS011;36264;51.296;-0.602;2022-11-20T01:16:46;8.02;;;4.65;;
50355;SDS011;36264;51.296;-0.602;2022-11-20T01:19:14;8.27;;;4.25;;
50355;SDS011;36264;51.296;-0.602;2022-11-20T01:21:43;7.93;;;4.60;;
50355;SDS011;36264;51.296;-0.602;2022-11-20T01:24:13;7.13;;;4.15;;
50355;SDS011;36264;51.296;-0.602;2022-11-20T01:26:41;6.55;;;4.15;;
50355;SDS011;36264;51.296;-0.602;2022-11-20T01:29:10;6.75;;;3.80;;
50355;SDS011;36264;51.296;-0.602;2022-11-20T01:31:39;7.75;;;4.15;;
50355;SDS011;36264;51.296;-0.602;2022-11-20T01:34:06;7.75;;;3.63;;
50355;SDS011;36264;51.296;-0.602;2022-11-20T01:36:34;7.20;;;3.47;;
50355;SDS011;36264;51.296;-0.602;2022-11-20T01:39:02;7.22;;;3.08;;
50355;SDS011;36264;51.296;-0.602;2022-11-20T01:41:30;6.57;;;3.33;;
50355;SDS011;36264;51.296;-0.602;2022-11-20T01:44:16;5.88;;;3.15;;
50355;SDS011;36264;51.296;-0.602;2022-11-20T01:46:58;4.60;;;2.97;;
50355;SDS011;36264;51.296;-0.602;2022-11-20T01:52:24;4.88;;;2.72;;
50355;SDS011;36264;51.296;-0.602;2022-11-20T01:57:31;8.18;;;3.35;;
50355;SDS011;36264;51.296;-0.602;2022-11-20T02:00:02;6.25;;;3.00;;
50355;SDS011;36264;51.296;-0.602;2022-11-20T02:04:56;5.63;;;2.92;;
50355;SDS011;36264;51.296;-0.602;2022-11-20T02:07:29;6.18;;;3.25;;
50355;SDS011;36264;51.296;-0.602;2022-11-20T02:09:55;5.18;;;2.83;;
50355;SDS011;36264;51.296;-0.602;2022-11-20T02:12:20;5.90;;;2.60;;
50355;SDS011;36264;51.296;-0.602;2022-11-20T02:15:04;5.97;;;2.90;;
50355;SDS011;36264;51.296;-0.602;2022-11-20T02:17:30;6.32;;;2.67;;
50355;SDS011;36264;51.296;-0.602;2022-11-20T02:19:55;5.38;;;2.63;;
50355;SDS011;36264;51.296;-0.602;2022-11-20T02:22:23;5.82;;;2.70;;
50355;SDS011;36264;51.296;-0.602;2022-11-20T02:24:53;4.63;;;2.20;;
50355;SDS011;36264;51.296;-0.602;2022-11-20T02:27:19;5.55;;;2.70;;
50355;SDS011;36264;51.296;-0.602;2022-11-20T02:34:46;5.78;;;2.80;;
50355;SDS011;36264;51.296;-0.602;2022-11-20T02:37:12;4.78;;;2.28;;
50355;SDS011;36264;51.296;-0.602;2022-11-20T02:39:38;6.28;;;2.50;;
50355;SDS011;36264;51.296;-0.602;2022-11-20T02:42:05;5.82;;;2.60;;
50355;SDS011;36264;51.296;-0.602;2022-11-20T02:44:30;6.65;;;2.88;;
50355;SDS011;36264;51.296;-0.602;2022-11-20T02:46:59;8.68;;;2.45;;
50355;SDS011;36264;51.296;-0.602;2022-11-20T02:49:24;4.85;;;2.65;;
50355;SDS011;36264;51.296;-0.602;2022-11-20T02:51:50;7.13;;;2.97;;
50355;SDS011;36264;51.296;-0.602;2022-11-20T02:54:16;5.43;;;2.20;;
50355;SDS011;36264;51.296;-0.602;2022-11-20T02:56:41;4.85;;;2.60;;
50355;SDS011;36264;51.296;-0.602;2022-11-20T02:59:07;4.88;;;2.58;;
50355;SDS011;36264;51.296;-0.602;2022-11-20T03:01:32;6.15;;;2.70;;
50355;SDS011;36264;51.296;-0.602;2022-11-20T03:03:57;3.63;;;2.03;;
50355;SDS011;36264;51.296;-0.602;2022-11-20T03:06:23;3.92;;;2.00;;
50355;SDS011;36264;51.296;-0.602;2022-11-20T03:08:48;4.85;;;2.25;;
50355;SDS011;36264;51.296;-0.602;2022-11-20T03:11:13;5.72;;;2.25;;
50355;SDS011;36264;51.296;-0.602;2022-11-20T03:13:39;4.75;;;2.30;;
50355;SDS011;36264;51.296;-0.602;2022-11-20T03:16:08;3.90;;;2.05;;
50355;SDS011;36264;51.296;-0.602;2022-11-20T03:18:38;5.68;;;2.20;;
50355;SDS011;36264;51.296;-0.602;2022-11-20T03:21:04;5.78;;;2.38;;
50355;SDS011;36264;51.296;-0.602;2022-11-20T03:23:31;5.63;;;2.28;;
50355;SDS011;36264;51.296;-0.602;2022-11-20T03:26:07;4.97;;;2.08;;
50355;SDS011;36264;51.296;-0.602;2022-11-20T03:28:50;5.45;;;2.10;;
50355;SDS011;36264;51.296;-0.602;2022-11-20T03:31:18;6.35;;;2.15;;
50355;SDS011;36264;51.296;-0.602;2022-11-20T03:33:46;3.08;;;1.80;;
50355;SDS011;36264;51.296;-0.602;2022-11-20T03:36:12;4.05;;;2.15;;
50355;SDS011;36264;51.296;-0.602;2022-11-20T03:38:39;3.65;;;1.90;;
50355;SDS011;36264;51.296;-0.602;2022-11-20T03:41:06;3.40;;;1.83;;
50355;SDS011;36264;51.296;-0.602;2022-11-20T03:43:36;4.40;;;1.90;;
50355;SDS011;36264;51.296;-0.602;2022-11-20T03:46:02;4.22;;;2.08;;
50355;SDS011;36264;51.296;-0.602;2022-11-20T03:48:29;4.22;;;1.70;;
50355;SDS011;36264;51.296;-0.602;2022-11-20T03:54:00;6.60;;;2.42;;
50355;SDS011;36264;51.296;-0.602;2022-11-20T03:56:29;5.32;;;2.17;;
50355;SDS011;36264;51.296;-0.602;2022-11-20T03:58:55;4.30;;;1.92;;
50355;SDS011;36264;51.296;-0.602;2022-11-20T04:01:23;4.68;;;2.30;;
50355;SDS011;36264;51.296;-0.602;2022-11-20T04:03:51;5.97;;;2.05;;
50355;SDS011;36264;51.296;-0.602;2022-11-20T04:06:22;6.50;;;2.60;;
50355;SDS011;36264;51.296;-0.602;2022-11-20T04:08:56;4.65;;;2.15;;
50355;SDS011;36264;51.296;-0.602;2022-11-20T04:11:24;5.13;;;2.27;;
50355;SDS011;36264;51.296;-0.602;2022-11-20T04:13:55;8.18;;;2.20;;
50355;SDS011;36264;51.296;-0.602;2022-11-20T04:16:23;5.47;;;2.33;;
50355;SDS011;36264;51.296;-0.602;2022-11-20T04:18:53;5.70;;;1.90;;
50355;SDS011;36264;51.296;-0.602;2022-11-20T04:21:19;5.80;;;2.47;;
50355;SDS011;36264;51.296;-0.602;2022-11-20T04:23:45;4.15;;;2.00;;
50355;SDS011;36264;51.296;-0.602;2022-11-20T04:26:11;7.13;;;2.30;;
50355;SDS011;36264;51.296;-0.602;2022-11-20T04:28:38;4.20;;;2.20;;
50355;SDS011;36264;51.296;-0.602;2022-11-20T04:31:05;4.45;;;2.20;;
50355;SDS011;36264;51.296;-0.602;2022-11-20T04:33:35;3.75;;;2.05;;
50355;SDS011;36264;51.296;-0.602;2022-11-20T04:36:02;5.72;;;2.83;;
50355;SDS011;36264;51.296;-0.602;2022-11-20T04:38:29;3.83;;;2.00;;
50355;SDS011;36264;51.296;-0.602;2022-11-20T04:40:58;6.68;;;2.15;;
50355;SDS011;36264;51.296;-0.602;2022-11-20T04:43:29;4.47;;;1.88;;
50355;SDS011;36264;51.296;-0.602;2022-11-20T04:45:56;5.85;;;2.20;;
50355;SDS011;36264;51.296;-0.602;2022-11-20T04:48:23;3.03;;;1.70;;
50355;SDS011;36264;51.296;-0.602;2022-11-20T04:50:50;3.58;;;1.92;;
50355;SDS011;36264;51.296;-0.602;2022-11-20T04:53:16;5.40;;;2.55;;
50355;SDS011;36264;51.296;-0.602;2022-11-20T04:55:41;3.40;;;1.80;;
50355;SDS011;36264;51.296;-0.602;2022-11-20T04:58:07;2.83;;;1.70;;
50355;SDS011;36264;51.296;-0.602;2022-11-20T05:00:33;5.28;;;2.13;;
50355;SDS011;36264;51.296;-0.602;2022-11-20T05:02:58;5.18;;;2.42;;
50355;SDS011;36264;51.296;-0.602;2022-11-20T05:05:24;6.25;;;2.40;;
50355;SDS011;36264;51.296;-0.602;2022-11-20T05:07:49;3.60;;;2.30;;
50355;SDS011;36264;51.296;-0.602;2022-11-20T05:10:14;6.72;;;2.13;;
50355;SDS011;36264;51.296;-0.602;2022-11-20T05:12:40;5.28;;;2.47;;
50355;SDS011;36264;51.296;-0.602;2022-11-20T05:15:05;5.10;;;1.90;;
50355;SDS011;36264;51.296;-0.602;2022-11-20T05:17:31;5.28;;;2.00;;
50355;SDS011;36264;51.296;-0.602;2022-11-20T05:19:56;5.53;;;2.75;;
50355;SDS011;36264;51.296;-0.602;2022-11-20T05:22:22;4.55;;;2.17;;
50355;SDS011;36264;51.296;-0.602;2022-11-20T05:24:47;4.38;;;2.08;;
50355;SDS011;36264;51.296;-0.602;2022-11-20T05:27:13;5.00;;;2.00;;
50355;SDS011;36264;51.296;-0.602;2022-11-20T05:29:38;3.45;;;1.73;;
50355;SDS011;36264;51.296;-0.602;2022-11-20T05:32:03;4.88;;;2.08;;
50355;SDS011;36264;51.296;-0.602;2022-11-20T05:34:30;4.45;;;1.92;;
50355;SDS011;36264;51.296;-0.602;2022-11-20T05:36:56;3.92;;;1.70;;
50355;SDS011;36264;51.296;-0.602;2022-11-20T05:39:21;5.22;;;1.90;;
50355;SDS011;36264;51.296;-0.602;2022-11-20T05:41:47;4.22;;;1.63;;
50355;SDS011;36264;51.296;-0.602;2022-11-20T05:44:32;5.07;;;2.03;;
50355;SDS011;36264;51.296;-0.602;2022-11-20T05:46:57;2.97;;;1.58;;
50355;SDS011;36264;51.296;-0.602;2022-11-20T05:49:23;4.68;;;1.98;;
50355;SDS011;36264;51.296;-0.602;2022-11-20T05:51:48;4.32;;;1.75;;
50355;SDS011;36264;51.296;-0.602;2022-11-20T05:54:13;5.07;;;1.80;;
50355;SDS011;36264;51.296;-0.602;2022-11-20T05:56:38;4.82;;;1.70;;
50355;SDS011;36264;51.296;-0.602;2022-11-20T05:59:05;3.28;;;1.88;;
50355;SDS011;36264;51.296;-0.602;2022-11-20T06:01:30;3.20;;;1.70;;
50355;SDS011;36264;51.296;-0.602;2022-11-20T06:03:56;3.45;;;1.83;;
50355;SDS011;36264;51.296;-0.602;2022-11-20T06:06:21;3.72;;;1.83;;
50355;SDS011;36264;51.296;-0.602;2022-11-20T06:08:47;4.57;;;1.75;;
50355;SDS011;36264;51.296;-0.602;2022-11-20T06:11:13;4.95;;;1.60;;
50355;SDS011;36264;51.296;-0.602;2022-11-20T06:13:40;5.28;;;1.83;;
50355;SDS011;36264;51.296;-0.602;2022-11-20T06:16:06;2.90;;;1.52;;
50355;SDS011;36264;51.296;-0.602;2022-11-20T06:18:32;3.78;;;2.08;;
50355;SDS011;36264;51.296;-0.602;2022-11-20T06:21:01;3.15;;;1.50;;
50355;SDS011;36264;51.296;-0.602;2022-11-20T06:23:31;3.38;;;1.70;;
50355;SDS011;36264;51.296;-0.602;2022-11-20T06:26:00;3.78;;;1.50;;
50355;SDS011;36264;51.296;-0.602;2022-11-20T06:28:30;3.28;;;1.77;;
50355;SDS011;36264;51.296;-0.602;2022-11-20T06:30:56;4.05;;;2.00;;
50355;SDS011;36264;51.296;-0.602;2022-11-20T06:33:22;3.10;;;1.73;;
50355;SDS011;36264;51.296;-0.602;2022-11-20T06:35:47;3.38;;;1.60;;
50355;SDS011;36264;51.296;-0.602;2022-11-20T06:38:12;5.32;;;1.65;;
50355;SDS011;36264;51.296;-0.602;2022-11-20T06:40:41;2.97;;;1.50;;
50355;SDS011;36264;51.296;-0.602;2022-11-20T06:43:07;5.07;;;1.80;;
50355;SDS011;36264;51.296;-0.602;2022-11-20T06:45:33;5.22;;;2.15;;
50355;SDS011;36264;51.296;-0.602;2022-11-20T06:47:58;4.50;;;1.90;;
50355;SDS011;36264;51.296;-0.602;2022-11-20T06:50:23;4.82;;;1.63;;
50355;SDS011;36264;51.296;-0.602;2022-11-20T06:52:49;6.65;;;1.90;;
50355;SDS011;36264;51.296;-0.602;2022-11-20T06:55:14;4.60;;;1.65;;
50355;SDS011;36264;51.296;-0.602;2022-11-20T06:57:40;2.78;;;1.60;;
50355;SDS011;36264;51.296;-0.602;2022-11-20T07:00:05;2.53;;;1.50;;
50355;SDS011;36264;51.296;-0.602;2022-11-20T07:02:31;3.20;;;1.40;;
50355;SDS011;36264;51.296;-0.602;2022-11-20T07:04:56;2.85;;;1.40;;
50355;SDS011;36264;51.296;-0.602;2022-11-20T07:07:22;2.63;;;1.25;;
50355;SDS011;36264;51.296;-0.602;2022-11-20T07:09:47;1.27;;;1.00;;
50355;SDS011;36264;51.296;-0.602;2022-11-20T07:12:12;2.25;;;1.17;;
50355;SDS011;36264;51.296;-0.602;2022-11-20T07:14:38;1.92;;;1.10;;
50355;SDS011;36264;51.296;-0.602;2022-11-20T07:17:03;2.20;;;1.23;;
50355;SDS011;36264;51.296;-0.602;2022-11-20T07:19:28;1.33;;;1.00;;
50355;SDS011;36264;51.296;-0.602;2022-11-20T07:21:54;2.42;;;1.10;;
50355;SDS011;36264;51.296;-0.602;2022-11-20T07:24:19;1.60;;;1.08;;
50355;SDS011;36264;51.296;-0.602;2022-11-20T07:26:47;1.70;;;0.98;;
50355;SDS011;36264;51.296;-0.602;2022-11-20T07:29:14;1.65;;;1.23;;
50355;SDS011;36264;51.296;-0.602;2022-11-20T07:31:41;2.83;;;1.25;;
50355;SDS011;36264;51.296;-0.602;2022-11-20T07:34:06;1.63;;;0.90;;
50355;SDS011;36264;51.296;-0.602;2022-11-20T07:36:32;2.85;;;1.20;;
50355;SDS011;36264;51.296;-0.602;2022-11-20T07:38:57;1.60;;;0.98;;
50355;SDS011;36264;51.296;-0.602;2022-11-20T07:41:22;2.83;;;1.20;;
50355;SDS011;36264;51.296;-0.602;2022-11-20T07:43:48;2.17;;;0.90;;
50355;SDS011;36264;51.296;-0.602;2022-11-20T07:46:13;1.88;;;0.90;;
50355;SDS011;36264;51.296;-0.602;2022-11-20T07:48:39;2.28;;;1.05;;
50355;SDS011;36264;51.296;-0.602;2022-11-20T07:51:04;2.55;;;1.30;;
50355;SDS011;36264;51.296;-0.602;2022-11-20T07:53:30;4.22;;;1.50;;
50355;SDS011;36264;51.296;-0.602;2022-11-20T07:55:58;2.25;;;1.30;;
50355;SDS011;36264;51.296;-0.602;2022-11-20T07:58:24;2.38;;;1.40;;
50355;SDS011;36264;51.296;-0.602;2022-11-20T08:00:50;2.45;;;1.70;;
50355;SDS011;36264;51.296;-0.602;2022-11-20T08:03:15;2.35;;;1.20;;
50355;SDS011;36264;51.296;-0.602;2022-11-20T08:05:40;2.10;;;1.30;;
50355;SDS011;36264;51.296;-0.602;2022-11-20T08:08:06;2.45;;;1.30;;
50355;SDS011;36264;51.296;-0.602;2022-11-20T08:10:32;2.65;;;1.42;;
50355;SDS011;36264;51.296;-0.602;2022-11-20T08:12:58;2.15;;;1.30;;
50355;SDS011;36264;51.296;-0.602;2022-11-20T08:15:47;3.50;;;1.73;;
50355;SDS011;36264;51.296;-0.602;2022-11-20T08:18:15;4.00;;;1.67;;
50355;SDS011;36264;51.296;-0.602;2022-11-20T08:20:40;5.32;;;2.55;;
50355;SDS011;36264;51.296;-0.602;2022-11-20T08:23:06;3.08;;;1.70;;
50355;SDS011;36264;51.296;-0.602;2022-11-20T08:25:33;3.53;;;1.90;;
50355;SDS011;36264;51.296;-0.602;2022-11-20T08:28:00;7.75;;;2.28;;
50355;SDS011;36264;51.296;-0.602;2022-11-20T08:30:27;3.67;;;1.85;;
50355;SDS011;36264;51.296;-0.602;2022-11-20T08:32:53;6.40;;;2.03;;
50355;SDS011;36264;51.296;-0.602;2022-11-20T08:35:19;3.47;;;2.20;;
50355;SDS011;36264;51.296;-0.602;2022-11-20T08:37:46;6.03;;;2.58;;
50355;SDS011;36264;51.296;-0.602;2022-11-20T08:40:14;5.75;;;2.10;;
50355;SDS011;36264;51.296;-0.602;2022-11-20T08:42:49;5.47;;;2.08;;
50355;SDS011;36264;51.296;-0.602;2022-11-20T08:45:16;2.78;;;1.70;;
50355;SDS011;36264;51.296;-0.602;2022-11-20T08:47:42;3.13;;;1.73;;
50355;SDS011;36264;51.296;-0.602;2022-11-20T08:50:08;3.67;;;1.80;;
50355;SDS011;36264;51.296;-0.602;2022-11-20T08:52:34;2.53;;;1.45;;
50355;SDS011;36264;51.296;-0.602;2022-11-20T08:55:00;3.50;;;1.98;;
50355;SDS011;36264;51.296;-0.602;2022-11-20T08:57:25;5.60;;;1.92;;
50355;SDS011;36264;51.296;-0.602;2022-11-20T08:59:51;3.72;;;1.60;;
50355;SDS011;36264;51.296;-0.602;2022-11-20T09:02:16;5.57;;;1.83;;
50355;SDS011;36264;51.296;-0.602;2022-11-20T09:04:41;2.80;;;1.60;;
50355;SDS011;36264;51.296;-0.602;2022-11-20T09:07:06;3.72;;;1.70;;
50355;SDS011;36264;51.296;-0.602;2022-11-20T09:09:32;4.47;;;1.90;;
50355;SDS011;36264;51.296;-0.602;2022-11-20T09:11:58;6.03;;;1.88;;
50355;SDS011;36264;51.296;-0.602;2022-11-20T09:14:23;4.72;;;1.70;;
50355;SDS011;36264;51.296;-0.602;2022-11-20T09:16:54;3.90;;;1.43;;
50355;SDS011;36264;51.296;-0.602;2022-11-20T09:19:23;4.47;;;1.70;;
50355;SDS011;36264;51.296;-0.602;2022-11-20T09:21:49;4.05;;;1.50;;
50355;SDS011;36264;51.296;-0.602;2022-11-20T09:24:14;4.07;;;1.70;;
50355;SDS011;36264;51.296;-0.602;2022-11-20T09:26:40;7.43;;;2.00;;
50355;SDS011;36264;51.296;-0.602;2022-11-20T09:29:05;5.10;;;1.50;;
50355;SDS011;36264;51.296;-0.602;2022-11-20T09:31:30;4.95;;;1.77;;
50355;SDS011;36264;51.296;-0.602;2022-11-20T09:33:56;5.82;;;1.55;;
50355;SDS011;36264;51.296;-0.602;2022-11-20T09:36:21;5.22;;;1.85;;
50355;SDS011;36264;51.296;-0.602;2022-11-20T09:38:47;5.07;;;1.48;;
50355;SDS011;36264;51.296;-0.602;2022-11-20T09:41:26;4.22;;;1.40;;
50355;SDS011;36264;51.296;-0.602;2022-11-20T09:52:15;3.85;;;1.35;;
50355;SDS011;36264;51.296;-0.602;2022-11-20T09:54:51;2.47;;;1.17;;
50355;SDS011;36264;51.296;-0.602;2022-11-20T09:57:20;6.00;;;1.40;;
50355;SDS011;36264;51.296;-0.602;2022-11-20T09:59:50;5.78;;;1.42;;
50355;SDS011;36264;51.296;-0.602;2022-11-20T10:05:18;4.90;;;1.63;;
50355;SDS011;36264;51.296;-0.602;2022-11-20T10:07:52;5.28;;;1.48;;
50355;SDS011;36264;51.296;-0.602;2022-11-20T10:13:10;5.93;;;1.60;;
50355;SDS011;36264;51.296;-0.602;2022-11-20T10:26:26;11.60;;;2.35;;
50355;SDS011;36264;51.296;-0.602;2022-11-20T10:29:18;14.95;;;2.83;;
50355;SDS011;36264;51.296;-0.602;2022-11-20T10:31:55;7.82;;;2.13;;
50355;SDS011;36264;51.296;-0.602;2022-11-20T10:37:09;9.85;;;2.35;;
50355;SDS011;36264;51.296;-0.602;2022-11-20T10:42:12;6.65;;;1.90;;
50355;SDS011;36264;51.296;-0.602;2022-11-20T10:44:48;5.75;;;1.90;;
50355;SDS011;36264;51.296;-0.602;2022-11-20T10:47:25;11.73;;;2.28;;
50355;SDS011;36264;51.296;-0.602;2022-11-20T10:49:53;10.98;;;2.75;;
50355;SDS011;36264;51.296;-0.602;2022-11-20T10:52:39;8.00;;;2.00;;
50355;SDS011;36264;51.296;-0.602;2022-11-20T11:00:37;10.95;;;2.58;;
50355;SDS011;36264;51.296;-0.602;2022-11-20T11:03:07;11.30;;;3.15;;
50355;SDS011;36264;51.296;-0.602;2022-11-20T11:05:57;9.85;;;2.50;;
50355;SDS011;36264;51.296;-0.602;2022-11-20T11:08:35;11.25;;;2.17;;
50355;SDS011;36264;51.296;-0.602;2022-11-20T11:14:04;8.00;;;2.30;;
50355;SDS011;36264;51.296;-0.602;2022-11-20T11:19:14;15.32;;;3.13;;
50355;SDS011;36264;51.296;-0.602;2022-11-20T11:21:50;12.35;;;3.38;;
50355;SDS011;36264;51.296;-0.602;2022-11-20T11:24:22;12.40;;;2.63;;
50355;SDS011;36264;51.296;-0.602;2022-11-20T11:26:56;11.73;;;2.50;;
50355;SDS011;36264;51.296;-0.602;2022-11-20T11:29:29;15.50;;;2.58;;
50355;SDS011;36264;51.296;-0.602;2022-11-20T11:34:36;11.70;;;2.47;;
50355;SDS011;36264;51.296;-0.602;2022-11-20T11:37:02;10.75;;;2.42;;
50355;SDS011;36264;51.296;-0.602;2022-11-20T11:39:28;11.32;;;2.85;;
50355;SDS011;36264;51.296;-0.602;2022-11-20T11:41:56;14.18;;;2.70;;
50355;SDS011;36264;51.296;-0.602;2022-11-20T11:44:27;17.65;;;2.88;;
50355;SDS011;36264;51.296;-0.602;2022-11-20T11:47:23;14.73;;;3.03;;
50355;SDS011;36264;51.296;-0.602;2022-11-20T11:50:00;11.13;;;2.95;;
50355;SDS011;36264;51.296;-0.602;2022-11-20T11:55:03;12.55;;;2.78;;
50355;SDS011;36264;51.296;-0.602;2022-11-20T12:00:11;10.80;;;2.72;;
50355;SDS011;36264;51.296;-0.602;2022-11-20T12:08:21;12.60;;;2.88;;
50355;SDS011;36264;51.296;-0.602;2022-11-20T12:10:57;12.07;;;2.67;;
50355;SDS011;36264;51.296;-0.602;2022-11-20T12:15:59;19.55;;;2.85;;
50355;SDS011;36264;51.296;-0.602;2022-11-20T12:18:26;12.43;;;2.78;;
50355;SDS011;36264;51.296;-0.602;2022-11-20T12:23:22;10.50;;;2.60;;
50355;SDS011;36264;51.296;-0.602;2022-11-20T12:25:54;15.85;;;2.85;;
50355;SDS011;36264;51.296;-0.602;2022-11-20T12:28:27;10.40;;;2.37;;
50355;SDS011;36264;51.296;-0.602;2022-11-20T12:34:14;11.00;;;2.72;;
50355;SDS011;36264;51.296;-0.602;2022-11-20T12:42:13;14.40;;;3.17;;
50355;SDS011;36264;51.296;-0.602;2022-11-20T12:45:25;11.70;;;2.60;;
50355;SDS011;36264;51.296;-0.602;2022-11-20T12:56:40;14.32;;;2.72;;
50355;SDS011;36264;51.296;-0.602;2022-11-20T12:59:26;14.63;;;2.85;;
50355;SDS011;36264;51.296;-0.602;2022-11-20T13:07:41;17.90;;;2.75;;
50355;SDS011;36264;51.296;-0.602;2022-11-20T13:10:13;13.30;;;3.22;;
50355;SDS011;36264;51.296;-0.602;2022-11-20T13:13:04;13.90;;;3.35;;
50355;SDS011;36264;51.296;-0.602;2022-11-20T13:18:11;11.50;;;2.30;;
50355;SDS011;36264;51.296;-0.602;2022-11-20T13:20:41;13.93;;;2.90;;
50355;SDS011;36264;51.296;-0.602;2022-11-20T13:23:10;14.68;;;3.42;;
50355;SDS011;36264;51.296;-0.602;2022-11-20T13:25:39;14.43;;;3.13;;
50355;SDS011;36264;51.296;-0.602;2022-11-20T13:28:25;12.30;;;2.35;;
50355;SDS011;36264;51.296;-0.602;2022-11-20T13:30:56;12.25;;;3.33;;
50355;SDS011;36264;51.296;-0.602;2022-11-20T13:35:56;13.10;;;3.50;;
50355;SDS011;36264;51.296;-0.602;2022-11-20T13:38:26;16.80;;;3.60;;
50355;SDS011;36264;51.296;-0.602;2022-11-20T13:40:53;8.85;;;2.53;;
50355;SDS011;36264;51.296;-0.602;2022-11-20T13:43:22;8.70;;;2.25;;
50355;SDS011;36264;51.296;-0.602;2022-11-20T13:46:01;9.88;;;2.30;;
50355;SDS011;36264;51.296;-0.602;2022-11-20T13:48:30;9.57;;;2.72;;
50355;SDS011;36264;51.296;-0.602;2022-11-20T13:51:10;12.23;;;2.47;;
50355;SDS011;36264;51.296;-0.602;2022-11-20T14:02:20;8.32;;;2.30;;
50355;SDS011;36264;51.296;-0.602;2022-11-20T14:04:49;9.18;;;2.53;;
50355;SDS011;36264;51.296;-0.602;2022-11-20T14:07:18;7.57;;;2.10;;
50355;SDS011;36264;51.296;-0.602;2022-11-20T14:09:52;12.27;;;2.90;;
50355;SDS011;36264;51.296;-0.602;2022-11-20T14:12:22;6.75;;;1.95;;
50355;SDS011;36264;51.296;-0.602;2022-11-20T14:19:53;11.75;;;2.45;;
50355;SDS011;36264;51.296;-0.602;2022-11-20T14:22:23;9.68;;;2.95;;
50355;SDS011;36264;51.296;-0.602;2022-11-20T14:27:37;5.75;;;1.80;;
50355;SDS011;36264;51.296;-0.602;2022-11-20T14:30:04;9.80;;;2.20;;
50355;SDS011;36264;51.296;-0.602;2022-11-20T14:32:31;12.93;;;2.40;;
50355;SDS011;36264;51.296;-0.602;2022-11-20T14:35:02;9.00;;;2.20;;
50355;SDS011;36264;51.296;-0.602;2022-11-20T14:37:36;13.90;;;2.40;;
50355;SDS011;36264;51.296;-0.602;2022-11-20T14:40:05;12.38;;;2.55;;
50355;SDS011;36264;51.296;-0.602;2022-11-20T14:42:46;11.70;;;2.42;;
50355;SDS011;36264;51.296;-0.602;2022-11-20T14:45:12;17.40;;;3.13;;
50355;SDS011;36264;51.296;-0.602;2022-11-20T14:47:37;10.82;;;2.90;;
50355;SDS011;36264;51.296;-0.602;2022-11-20T14:50:03;13.18;;;2.75;;
50355;SDS011;36264;51.296;-0.602;2022-11-20T14:52:54;9.60;;;2.63;;
50355;SDS011;36264;51.296;-0.602;2022-11-20T14:55:26;12.18;;;2.45;;
50355;SDS011;36264;51.296;-0.602;2022-11-20T14:58:03;7.90;;;2.05;;
50355;SDS011;36264;51.296;-0.602;2022-11-20T15:00:31;16.73;;;3.28;;
50355;SDS011;36264;51.296;-0.602;2022-11-20T15:02:57;10.43;;;2.58;;
50355;SDS011;36264;51.296;-0.602;2022-11-20T15:05:43;12.48;;;2.92;;
50355;SDS011;36264;51.296;-0.602;2022-11-20T15:08:11;10.95;;;2.35;;
50355;SDS011;36264;51.296;-0.602;2022-11-20T15:10:38;8.98;;;2.15;;
50355;SDS011;36264;51.296;-0.602;2022-11-20T15:13:13;11.98;;;2.63;;
50355;SDS011;36264;51.296;-0.602;2022-11-20T15:18:16;8.27;;;2.60;;
50355;SDS011;36264;51.296;-0.602;2022-11-20T15:20:43;5.30;;;1.70;;
50355;SDS011;36264;51.296;-0.602;2022-11-20T15:23:12;11.65;;;2.90;;
50355;SDS011;36264;51.296;-0.602;2022-11-20T15:25:43;11.05;;;2.28;;
50355;SDS011;36264;51.296;-0.602;2022-11-20T15:30:47;7.68;;;2.33;;
50355;SDS011;36264;51.296;-0.602;2022-11-20T15:33:14;8.27;;;2.10;;
50355;SDS011;36264;51.296;-0.602;2022-11-20T15:35:41;11.65;;;2.70;;
50355;SDS011;36264;51.296;-0.602;2022-11-20T15:38:06;7.00;;;2.25;;
50355;SDS011;36264;51.296;-0.602;2022-11-20T15:40:32;6.95;;;1.95;;
50355;SDS011;36264;51.296;-0.602;2022-11-20T15:42:57;7.90;;;2.42;;
50355;SDS011;36264;51.296;-0.602;2022-11-20T15:45:38;8.13;;;2.08;;
50355;SDS011;36264;51.296;-0.602;2022-11-20T15:48:16;5.88;;;1.90;;
50355;SDS011;36264;51.296;-0.602;2022-11-20T15:50:52;9.57;;;2.30;;
50355;SDS011;36264;51.296;-0.602;2022-11-20T15:53:22;11.63;;;2.30;;
50355;SDS011;36264;51.296;-0.602;2022-11-20T15:55:48;5.15;;;2.20;;
50355;SDS011;36264;51.296;-0.602;2022-11-20T15:58:13;8.65;;;1.83;;
50355;SDS011;36264;51.296;-0.602;2022-11-20T16:00:39;9.63;;;2.05;;
50355;SDS011;36264;51.296;-0.602;2022-11-20T16:03:04;8.13;;;2.08;;
50355;SDS011;36264;51.296;-0.602;2022-11-20T16:05:29;6.25;;;1.83;;
50355;SDS011;36264;51.296;-0.602;2022-11-20T16:07:55;8.45;;;1.90;;
50355;SDS011;36264;51.296;-0.602;2022-11-20T16:10:22;5.15;;;1.70;;
50355;SDS011;36264;51.296;-0.602;2022-11-20T16:12:48;7.47;;;1.92;;
50355;SDS011;36264;51.296;-0.602;2022-11-20T16:15:32;5.97;;;1.80;;
50355;SDS011;36264;51.296;-0.602;2022-11-20T16:18:10;4.75;;;1.40;;
50355;SDS011;36264;51.296;-0.602;2022-11-20T16:20:37;5.80;;;1.77;;
50355;SDS011;36264;51.296;-0.602;2022-11-20T16:23:03;5.78;;;1.63;;
50355;SDS011;36264;51.296;-0.602;2022-11-20T16:25:29;7.30;;;1.88;;
50355;SDS011;36264;51.296;-0.602;2022-11-20T16:27:54;7.15;;;1.50;;
50355;SDS011;36264;51.296;-0.602;2022-11-20T16:30:20;6.95;;;1.80;;
50355;SDS011;36264;51.296;-0.602;2022-11-20T16:32:45;11.43;;;2.25;;
50355;SDS011;36264;51.296;-0.602;2022-11-20T16:35:10;11.30;;;2.33;;
50355;SDS011;36264;51.296;-0.602;2022-11-20T16:37:36;5.90;;;1.73;;
50355;SDS011;36264;51.296;-0.602;2022-11-20T16:40:01;4.63;;;1.70;;
50355;SDS011;36264;51.296;-0.602;2022-11-20T16:42:26;4.60;;;1.58;;
50355;SDS011;36264;51.296;-0.602;2022-11-20T16:44:51;3.97;;;1.73;;